createdAt,value
2023-04-23T00:02:03.080Z,99.90
2023-04-23T00:04:29.126Z,99.90
2023-04-23T00:06:54.188Z,99.90
2023-04-23T00:09:19.746Z,99.90
2023-04-23T00:11:44.917Z,99.90
2023-04-23T00:14:09.808Z,99.90
2023-04-23T00:16:35.174Z,99.90
2023-04-23T00:19:01.160Z,99.90
2023-04-23T00:21:27.804Z,99.90
2023-04-23T00:23:52.498Z,99.90
2023-04-23T00:26:18.655Z,99.90
2023-04-23T00:28:43.577Z,99.90
2023-04-23T00:31:09.126Z,99.90
2023-04-23T00:33:34.325Z,99.90
2023-04-23T00:36:00.659Z,99.90
2023-04-23T00:38:26.690Z,99.90
2023-04-23T00:40:52.202Z,99.90
2023-04-23T00:43:17.808Z,99.90
2023-04-23T00:45:43.151Z,99.90
2023-04-23T00:48:09.619Z,99.90
2023-04-23T00:50:34.174Z,99.90
2023-04-23T00:53:00.185Z,99.90
2023-04-23T00:55:25.190Z,99.90
2023-04-23T00:57:50.710Z,99.90
2023-04-23T01:00:16.503Z,99.90
2023-04-23T01:02:42.653Z,99.90
2023-04-23T01:05:09.492Z,99.90
2023-04-23T01:07:36.991Z,99.90
2023-04-23T01:10:03.628Z,99.90
2023-04-23T01:12:29.493Z,99.90
2023-04-23T01:14:54.378Z,99.90
2023-04-23T01:17:19.599Z,99.90
2023-04-23T01:19:45.368Z,99.90
2023-04-23T01:22:13.324Z,99.90
2023-04-23T01:24:38.889Z,99.90
2023-04-23T01:27:03.950Z,99.90
2023-04-23T01:29:28.789Z,99.90
2023-04-23T01:31:54.769Z,99.90
2023-04-23T01:34:20.196Z,99.90
2023-04-23T01:36:45.643Z,99.90
2023-04-23T01:39:11.666Z,99.90
2023-04-23T01:41:37.283Z,99.90
2023-04-23T01:44:02.864Z,99.90
2023-04-23T01:46:28.608Z,99.90
2023-04-23T01:48:55.594Z,99.90
2023-04-23T01:51:20.285Z,99.90
2023-04-23T01:53:45.097Z,99.90
2023-04-23T01:56:11.885Z,99.90
2023-04-23T01:58:36.581Z,99.90
2023-04-23T02:01:01.519Z,99.90
2023-04-23T02:03:27.237Z,99.90
2023-04-23T02:05:55.286Z,99.90
2023-04-23T02:08:20.051Z,99.90
2023-04-23T02:10:44.825Z,99.90
2023-04-23T02:13:11.304Z,99.90
2023-04-23T02:15:38.312Z,99.90
2023-04-23T02:18:02.921Z,99.90
2023-04-23T02:20:27.659Z,99.90
2023-04-23T02:22:52.702Z,99.90
2023-04-23T02:25:18.215Z,99.90
2023-04-23T02:27:43.405Z,99.90
2023-04-23T02:30:12.245Z,99.90
2023-04-23T02:32:37.847Z,99.90
2023-04-23T02:35:03.785Z,99.90
2023-04-23T02:37:28.921Z,99.90
2023-04-23T02:39:53.600Z,99.90
2023-04-23T02:42:18.400Z,99.90
2023-04-23T02:44:43.212Z,99.90
2023-04-23T02:47:10.023Z,99.90
2023-04-23T02:49:34.698Z,99.90
2023-04-23T02:51:59.329Z,99.90
2023-04-23T02:54:24.155Z,99.90
2023-04-23T02:56:48.966Z,99.90
2023-04-23T02:59:13.994Z,99.90
2023-04-23T03:01:38.810Z,99.90
2023-04-23T03:04:07.716Z,99.90
2023-04-23T03:06:34.648Z,99.90
2023-04-23T03:08:59.789Z,99.90
2023-04-23T03:11:25.005Z,99.90
2023-04-23T03:13:49.991Z,99.90
2023-04-23T03:16:17.018Z,99.90
2023-04-23T03:18:41.615Z,99.90
2023-04-23T03:21:08.133Z,99.90
2023-04-23T03:23:32.807Z,99.90
2023-04-23T03:25:57.571Z,99.90
2023-04-23T03:28:22.143Z,99.90
2023-04-23T03:30:47.258Z,99.90
2023-04-23T03:33:12.024Z,99.90
2023-04-23T03:35:37.099Z,99.90
2023-04-23T03:38:07.575Z,99.90
2023-04-23T03:40:33.913Z,99.90
2023-04-23T03:43:01.403Z,99.90
2023-04-23T03:45:47.364Z,99.90
2023-04-23T03:48:12.115Z,99.90
2023-04-23T03:50:40.563Z,99.90
2023-04-23T03:53:29.883Z,99.90
2023-04-23T03:56:24.604Z,99.90
2023-04-23T03:59:08.375Z,99.90
2023-04-23T04:01:36.352Z,99.90
2023-04-23T04:04:01.634Z,99.90
2023-04-23T04:06:28.837Z,99.90
2023-04-23T04:08:55.159Z,99.90
2023-04-23T04:11:21.253Z,99.90
2023-04-23T04:13:45.792Z,99.90
2023-04-23T04:16:10.902Z,99.90
2023-04-23T04:18:35.583Z,99.80
2023-04-23T04:21:00.888Z,99.00
2023-04-23T04:23:25.773Z,99.00
2023-04-23T04:25:54.739Z,98.20
2023-04-23T04:28:19.173Z,98.10
2023-04-23T04:30:44.224Z,98.20
2023-04-23T04:33:09.033Z,97.70
2023-04-23T04:35:33.558Z,97.50
2023-04-23T04:37:58.963Z,96.90
2023-04-23T04:40:23.877Z,96.60
2023-04-23T04:42:50.126Z,97.10
2023-04-23T04:45:14.861Z,96.00
2023-04-23T04:47:39.871Z,95.80
2023-04-23T04:50:05.484Z,95.40
2023-04-23T04:52:30.471Z,95.50
2023-04-23T04:54:55.201Z,95.10
2023-04-23T04:57:21.483Z,95.00
2023-04-23T04:59:48.368Z,95.50
2023-04-23T05:02:13.179Z,95.60
2023-04-23T05:04:38.616Z,95.70
2023-04-23T05:07:03.604Z,95.90
2023-04-23T05:09:29.290Z,95.60
2023-04-23T05:11:54.140Z,95.50
2023-04-23T05:14:18.866Z,99.80
2023-04-23T05:16:44.914Z,95.30
2023-04-23T05:19:09.835Z,95.30
2023-04-23T05:21:34.281Z,95.20
2023-04-23T05:23:58.910Z,95.30
2023-04-23T05:26:24.091Z,95.80
2023-04-23T05:28:48.614Z,95.40
2023-04-23T05:31:13.121Z,94.10
2023-04-23T05:33:49.250Z,94.40
2023-04-23T05:36:14.746Z,93.90
2023-04-23T05:38:40.710Z,93.70
2023-04-23T05:41:05.478Z,93.80
2023-04-23T05:43:30.084Z,93.80
2023-04-23T05:45:54.884Z,93.50
2023-04-23T05:48:19.841Z,93.10
2023-04-23T05:50:46.604Z,93.10
2023-04-23T05:53:11.448Z,92.30
2023-04-23T05:55:36.283Z,91.90
2023-04-23T05:58:00.797Z,91.60
2023-04-23T06:00:25.455Z,91.50
2023-04-23T06:02:50.039Z,90.90
2023-04-23T06:05:15.080Z,90.70
2023-04-23T06:10:28.097Z,91.00
2023-04-23T06:12:55.858Z,90.80
2023-04-23T06:15:20.539Z,91.00
2023-04-23T06:17:45.042Z,91.10
2023-04-23T06:20:11.983Z,90.60
2023-04-23T06:22:36.585Z,90.80
2023-04-23T06:25:02.687Z,90.60
2023-04-23T06:27:28.622Z,91.20
2023-04-23T06:29:58.976Z,91.60
2023-04-23T06:32:24.404Z,90.80
2023-04-23T06:35:00.068Z,90.50
2023-04-23T06:37:29.643Z,89.50
2023-04-23T06:39:54.498Z,89.80
2023-04-23T06:42:20.963Z,89.20
2023-04-23T06:45:06.367Z,89.90
2023-04-23T06:47:31.490Z,90.00
2023-04-23T06:49:56.195Z,87.80
2023-04-23T06:52:21.084Z,88.80
2023-04-23T06:54:45.744Z,86.90
2023-04-23T06:57:10.752Z,85.80
2023-04-23T06:59:36.688Z,83.70
2023-04-23T07:02:01.870Z,85.50
2023-04-23T07:04:26.978Z,84.10
2023-04-23T07:06:51.920Z,83.10
2023-04-23T07:09:16.406Z,81.70
2023-04-23T07:11:41.408Z,80.60
2023-04-23T07:14:06.689Z,82.10
2023-04-23T07:16:34.191Z,82.70
2023-04-23T07:18:59.421Z,81.20
2023-04-23T07:21:24.168Z,79.50
2023-04-23T07:23:49.259Z,79.10
2023-04-23T07:26:14.180Z,78.30
2023-04-23T07:28:38.809Z,77.10
2023-04-23T07:31:04.428Z,76.10
2023-04-23T07:33:30.616Z,76.40
2023-04-23T07:35:55.309Z,74.90
2023-04-23T07:38:19.902Z,70.70
2023-04-23T07:40:45.205Z,72.00
2023-04-23T07:43:09.843Z,72.20
2023-04-23T07:45:34.846Z,72.10
2023-04-23T07:47:59.719Z,72.50
2023-04-23T07:50:25.799Z,71.90
2023-04-23T07:52:50.219Z,71.30
2023-04-23T07:55:15.379Z,70.80
2023-04-23T07:57:39.870Z,68.20
2023-04-23T08:00:04.760Z,70.00
2023-04-23T08:02:36.822Z,70.80
2023-04-23T08:05:01.625Z,71.10
2023-04-23T08:07:29.938Z,68.90
2023-04-23T08:09:54.722Z,68.60
2023-04-23T08:12:20.237Z,68.40
2023-04-23T08:14:47.383Z,68.10
2023-04-23T08:17:15.575Z,68.00
2023-04-23T08:19:40.342Z,68.70
2023-04-23T08:22:05.212Z,67.30
2023-04-23T08:24:31.696Z,68.60
2023-04-23T08:26:58.244Z,69.00
2023-04-23T08:29:24.252Z,70.20
2023-04-23T08:31:49.003Z,69.30
2023-04-23T08:34:16.707Z,68.80
2023-04-23T08:36:41.302Z,67.70
2023-04-23T08:39:06.293Z,68.10
2023-04-23T08:41:43.000Z,69.00
2023-04-23T08:44:14.952Z,70.10
2023-04-23T08:46:43.873Z,71.80
2023-04-23T08:49:10.451Z,70.30
2023-04-23T08:51:39.902Z,71.10
2023-04-23T08:54:06.888Z,68.90
2023-04-23T08:56:34.324Z,70.90
2023-04-23T08:59:00.135Z,65.10
2023-04-23T09:01:24.819Z,65.40
2023-04-23T09:03:50.194Z,66.00
2023-04-23T09:06:15.069Z,66.60
2023-04-23T09:08:40.272Z,64.70
2023-04-23T09:11:07.420Z,68.70
2023-04-23T09:13:37.373Z,70.40
2023-04-23T09:16:01.828Z,67.80
2023-04-23T09:18:26.409Z,69.50
2023-04-23T09:20:51.713Z,65.00
2023-04-23T09:23:18.973Z,70.40
2023-04-23T09:25:44.097Z,65.10
2023-04-23T09:28:10.952Z,68.20
2023-04-23T09:30:42.369Z,61.90
2023-04-23T09:33:07.316Z,65.90
2023-04-23T09:35:35.702Z,64.90
2023-04-23T09:38:05.128Z,65.80
2023-04-23T09:40:29.856Z,63.60
2023-04-23T09:42:55.226Z,66.10
2023-04-23T09:45:20.153Z,65.20
2023-04-23T09:47:51.430Z,64.20
2023-04-23T09:50:17.016Z,64.00
2023-04-23T09:52:42.789Z,66.80
2023-04-23T09:55:09.055Z,62.60
2023-04-23T09:57:38.636Z,68.20
2023-04-23T10:00:16.989Z,60.90
2023-04-23T10:02:47.105Z,70.00
2023-04-23T10:05:24.438Z,68.00
2023-04-23T10:07:50.967Z,64.80
2023-04-23T10:10:15.969Z,63.70
2023-04-23T10:12:54.120Z,64.70
2023-04-23T10:15:19.847Z,63.20
2023-04-23T10:17:45.058Z,63.80
2023-04-23T10:20:12.307Z,68.30
2023-04-23T10:22:40.304Z,67.40
2023-04-23T10:25:08.978Z,62.90
2023-04-23T10:27:48.348Z,62.60
2023-04-23T10:30:16.580Z,65.50
2023-04-23T10:32:41.856Z,65.10
2023-04-23T10:35:10.280Z,61.40
2023-04-23T10:37:37.757Z,62.60
2023-04-23T10:40:09.295Z,65.70
2023-04-23T10:42:34.045Z,63.20
2023-04-23T10:45:07.205Z,62.80
2023-04-23T10:47:37.878Z,64.00
2023-04-23T10:50:20.378Z,63.90
2023-04-23T10:52:46.847Z,64.50
2023-04-23T10:55:18.677Z,62.90
2023-04-23T10:58:00.866Z,62.40
2023-04-23T11:00:27.532Z,71.90
2023-04-23T11:02:53.415Z,64.20
2023-04-23T11:05:18.437Z,61.90
2023-04-23T11:07:43.003Z,62.40
2023-04-23T11:10:15.902Z,64.20
2023-04-23T11:12:42.093Z,64.60
2023-04-23T11:15:13.861Z,66.30
2023-04-23T11:18:00.941Z,65.90
2023-04-23T11:20:26.024Z,65.00
2023-04-23T11:22:52.067Z,63.80
2023-04-23T11:25:22.544Z,61.80
2023-04-23T11:27:48.140Z,67.70
2023-04-23T11:30:14.474Z,63.90
2023-04-23T11:32:39.166Z,64.50
2023-04-23T11:35:05.652Z,62.00
2023-04-23T11:37:30.368Z,64.30
2023-04-23T11:39:54.826Z,62.20
2023-04-23T11:42:21.982Z,62.70
2023-04-23T11:44:47.931Z,64.50
2023-04-23T11:47:14.052Z,61.70
2023-04-23T11:49:39.768Z,62.50
2023-04-23T11:52:05.476Z,65.20
2023-04-23T11:54:30.868Z,63.60
2023-04-23T11:56:55.932Z,60.40
2023-04-23T11:59:22.210Z,61.90
2023-04-23T12:01:49.070Z,62.10
2023-04-23T12:04:15.249Z,62.00
2023-04-23T12:06:39.982Z,61.30
2023-04-23T12:09:04.793Z,61.60
2023-04-23T12:11:29.331Z,66.20
2023-04-23T12:13:54.224Z,66.70
2023-04-23T12:16:34.696Z,62.20
2023-04-23T12:18:59.291Z,65.10
2023-04-23T12:21:25.994Z,63.60
2023-04-23T12:23:53.317Z,61.90
2023-04-23T12:26:21.454Z,63.50
2023-04-23T12:28:49.164Z,65.90
2023-04-23T12:31:24.351Z,63.90
2023-04-23T12:33:49.035Z,64.40
2023-04-23T12:36:16.390Z,65.00
2023-04-23T12:38:42.573Z,62.80
2023-04-23T12:41:07.224Z,65.40
2023-04-23T12:43:32.470Z,64.60
2023-04-23T12:45:57.472Z,63.50
2023-04-23T12:48:23.724Z,64.00
2023-04-23T12:50:48.678Z,63.90
2023-04-23T12:53:13.503Z,64.10
2023-04-23T12:55:39.829Z,62.90
2023-04-23T12:58:04.540Z,64.70
2023-04-23T13:00:29.210Z,65.20
2023-04-23T13:02:54.036Z,64.30
2023-04-23T13:05:20.080Z,63.20
2023-04-23T13:07:44.941Z,64.50
2023-04-23T13:10:10.346Z,63.10
2023-04-23T13:12:34.895Z,63.90
2023-04-23T13:14:59.888Z,69.60
2023-04-23T13:17:26.409Z,65.30
2023-04-23T13:19:51.367Z,64.40
2023-04-23T13:22:17.420Z,66.80
2023-04-23T13:24:42.072Z,65.00
2023-04-23T13:27:09.951Z,65.90
2023-04-23T13:29:34.518Z,66.00
2023-04-23T13:32:00.281Z,67.90
2023-04-23T13:34:24.936Z,69.10
2023-04-23T13:36:49.729Z,67.50
2023-04-23T13:39:15.708Z,68.00
2023-04-23T13:41:40.705Z,65.60
2023-04-23T13:44:05.490Z,68.50
2023-04-23T13:46:30.265Z,68.60
2023-04-23T13:48:55.399Z,69.50
2023-04-23T13:51:34.108Z,68.60
2023-04-23T13:54:00.654Z,71.20
2023-04-23T13:56:27.807Z,70.70
2023-04-23T13:58:53.160Z,67.40
2023-04-23T14:01:17.785Z,67.90
2023-04-23T14:03:42.373Z,68.30
2023-04-23T14:06:07.212Z,70.00
2023-04-23T14:08:31.698Z,69.90
2023-04-23T14:10:56.180Z,72.20
2023-04-23T14:13:22.860Z,77.10
2023-04-23T14:15:47.875Z,83.80
2023-04-23T14:18:12.597Z,84.20
2023-04-23T14:20:37.501Z,89.30
2023-04-23T14:23:12.558Z,91.10
2023-04-23T14:25:42.884Z,91.50
2023-04-23T14:28:29.886Z,91.50
2023-04-23T14:30:57.190Z,92.00
2023-04-23T14:33:22.050Z,92.10
2023-04-23T14:35:47.703Z,93.40
2023-04-23T14:38:12.336Z,94.10
2023-04-23T14:40:36.824Z,94.80
2023-04-23T14:43:14.630Z,95.50
2023-04-23T14:45:41.709Z,96.60
2023-04-23T14:48:06.254Z,98.00
2023-04-23T14:50:30.972Z,99.10
2023-04-23T14:52:56.173Z,98.50
2023-04-23T14:55:20.802Z,97.80
2023-04-23T14:57:45.540Z,98.00
2023-04-23T15:00:13.307Z,96.60
2023-04-23T15:02:39.457Z,94.80
2023-04-23T15:05:04.095Z,93.00
2023-04-23T15:07:29.483Z,86.00
2023-04-23T15:09:54.520Z,77.60
2023-04-23T15:12:43.222Z,80.10
2023-04-23T15:15:15.271Z,77.10
2023-04-23T15:17:41.624Z,76.70
2023-04-23T15:20:06.879Z,79.90
2023-04-23T15:22:32.796Z,80.00
2023-04-23T15:24:57.204Z,80.30
2023-04-23T15:27:22.121Z,80.50
2023-04-23T15:29:46.674Z,85.30
2023-04-23T15:32:12.194Z,76.60
2023-04-23T15:34:38.041Z,69.70
2023-04-23T15:37:02.518Z,70.60
2023-04-23T15:39:26.926Z,67.60
2023-04-23T15:41:53.820Z,69.20
2023-04-23T15:44:19.032Z,70.60
2023-04-23T15:46:44.036Z,73.00
2023-04-23T15:49:08.643Z,73.70
2023-04-23T15:51:34.729Z,74.20
2023-04-23T15:53:59.218Z,74.40
2023-04-23T15:56:24.411Z,77.70
2023-04-23T15:58:50.050Z,76.10
2023-04-23T16:01:14.799Z,76.80
2023-04-23T16:03:39.754Z,77.50
2023-04-23T16:06:05.195Z,87.70
2023-04-23T16:08:31.124Z,88.70
2023-04-23T16:10:57.195Z,90.50
2023-04-23T16:13:23.170Z,90.50
2023-04-23T16:15:47.677Z,90.30
2023-04-23T16:18:12.168Z,90.40
2023-04-23T16:20:37.296Z,90.30
2023-04-23T16:23:02.568Z,90.90
2023-04-23T16:25:28.768Z,90.80
2023-04-23T16:27:53.522Z,91.30
2023-04-23T16:30:18.233Z,91.50
2023-04-23T16:32:42.759Z,92.00
2023-04-23T16:35:08.546Z,91.50
2023-04-23T16:37:33.149Z,91.80
2023-04-23T16:39:57.709Z,92.20
2023-04-23T16:42:24.006Z,92.20
2023-04-23T16:44:48.674Z,92.30
2023-04-23T16:47:13.292Z,92.60
2023-04-23T16:49:38.050Z,92.50
2023-04-23T16:52:03.849Z,92.80
2023-04-23T16:54:29.201Z,93.10
2023-04-23T16:56:53.641Z,93.10
2023-04-23T16:59:19.951Z,92.60
2023-04-23T17:01:44.454Z,92.90
2023-04-23T17:04:09.604Z,92.80
2023-04-23T17:06:34.921Z,92.90
2023-04-23T17:09:01.185Z,92.60
2023-04-23T17:11:26.114Z,92.40
2023-04-23T17:13:50.936Z,92.40
2023-04-23T17:16:17.111Z,92.20
2023-04-23T17:18:41.778Z,92.50
2023-04-23T17:21:06.470Z,92.30
2023-04-23T17:23:31.509Z,92.60
2023-04-23T17:25:56.036Z,92.90
2023-04-23T17:28:21.119Z,93.10
2023-04-23T17:30:47.670Z,92.80
2023-04-23T17:33:14.135Z,93.30
2023-04-23T17:35:39.137Z,93.20
2023-04-23T17:38:04.113Z,93.70
2023-04-23T17:40:28.999Z,94.00
2023-04-23T17:42:53.665Z,93.50
2023-04-23T17:45:18.595Z,93.60
2023-04-23T17:47:43.233Z,93.30
2023-04-23T17:50:12.247Z,93.50
2023-04-23T17:52:37.723Z,93.30
2023-04-23T17:55:02.682Z,94.10
2023-04-23T17:57:27.453Z,94.30
2023-04-23T17:59:52.172Z,93.50
2023-04-23T18:02:17.527Z,93.40
2023-04-23T18:04:42.674Z,93.70
2023-04-23T18:07:08.741Z,93.80
2023-04-23T18:09:34.901Z,94.40
2023-04-23T18:11:59.745Z,94.70
2023-04-23T18:14:24.801Z,94.10
2023-04-23T18:16:49.453Z,94.60
2023-04-23T18:19:14.498Z,94.30
2023-04-23T18:21:39.976Z,94.70
2023-04-23T18:24:06.214Z,94.60
2023-04-23T18:26:31.277Z,94.50
2023-04-23T18:28:56.672Z,94.60
2023-04-23T18:31:21.662Z,94.80
2023-04-23T18:33:55.115Z,95.40
2023-04-23T18:36:25.342Z,95.20
2023-04-23T18:38:50.984Z,95.40
2023-04-23T18:41:17.148Z,95.40
2023-04-23T18:43:42.083Z,95.00
2023-04-23T18:46:06.746Z,95.10
2023-04-23T18:48:46.307Z,95.30
2023-04-23T18:51:23.093Z,95.00
2023-04-23T18:53:48.115Z,94.60
2023-04-23T18:56:12.565Z,94.50
2023-04-23T18:58:38.526Z,94.60
2023-04-23T19:01:03.353Z,95.30
2023-04-23T19:03:29.263Z,96.70
2023-04-23T19:05:54.016Z,98.50
2023-04-23T19:08:18.634Z,98.40
2023-04-23T19:10:45.030Z,97.10
2023-04-23T19:13:09.973Z,96.10
2023-04-23T19:15:36.192Z,96.40
2023-04-23T19:18:01.304Z,96.70
2023-04-23T19:20:26.060Z,96.50
2023-04-23T19:22:51.090Z,96.50
2023-04-23T19:25:15.980Z,97.20
2023-04-23T19:27:40.876Z,97.10
2023-04-23T19:30:07.000Z,96.90
2023-04-23T19:32:34.219Z,96.60
2023-04-23T19:34:58.698Z,96.60
2023-04-23T19:37:23.746Z,96.40
2023-04-23T19:39:48.282Z,96.20
2023-04-23T19:42:15.664Z,96.10
2023-04-23T19:44:40.166Z,95.90
2023-04-23T19:47:05.498Z,95.40
2023-04-23T19:49:32.246Z,95.30
2023-04-23T19:52:00.196Z,95.40
2023-04-23T19:54:24.843Z,95.50
2023-04-23T19:56:49.532Z,95.30
2023-04-23T19:59:15.423Z,95.40
2023-04-23T20:01:41.111Z,95.40
2023-04-23T20:04:07.339Z,95.40
2023-04-23T20:06:33.560Z,95.80
2023-04-23T20:09:08.048Z,95.90
2023-04-23T20:11:32.737Z,95.80
2023-04-23T20:13:57.311Z,95.90
2023-04-23T20:16:22.349Z,95.90
2023-04-23T20:18:47.395Z,95.80
2023-04-23T20:21:11.839Z,95.90
2023-04-23T20:23:37.737Z,95.80
2023-04-23T20:26:02.480Z,96.00
2023-04-23T20:28:27.257Z,96.00
2023-04-23T20:30:52.040Z,96.00
2023-04-23T20:33:18.834Z,96.30
2023-04-23T20:35:43.761Z,96.60
2023-04-23T20:38:08.939Z,96.90
2023-04-23T20:40:36.241Z,97.30
2023-04-23T20:43:01.040Z,97.80
2023-04-23T20:45:25.781Z,98.10
2023-04-23T20:47:51.518Z,98.50
2023-04-23T20:50:16.256Z,98.70
2023-04-23T20:52:40.949Z,98.80
2023-04-23T20:55:05.751Z,99.00
2023-04-23T20:57:32.465Z,99.20
2023-04-23T20:59:56.981Z,99.40
2023-04-23T21:02:21.696Z,99.50
2023-04-23T21:04:46.307Z,99.50
2023-04-23T21:07:11.238Z,99.60
2023-04-23T21:09:35.861Z,99.70
2023-04-23T21:12:00.932Z,99.70
2023-04-23T21:14:26.894Z,99.80
2023-04-23T21:16:51.336Z,99.80
2023-04-23T21:19:15.938Z,99.90
2023-04-23T21:21:42.567Z,99.90
2023-04-23T21:24:07.441Z,99.90
2023-04-23T21:26:32.799Z,99.90
2023-04-23T21:28:58.370Z,99.90
2023-04-23T21:31:35.207Z,99.90
2023-04-23T21:34:00.124Z,99.90
2023-04-23T21:36:24.945Z,99.90
2023-04-23T21:38:49.896Z,99.90
2023-04-23T21:41:14.294Z,99.90
2023-04-23T21:43:39.567Z,99.90
2023-04-23T21:46:04.215Z,99.90
2023-04-23T21:48:31.384Z,99.90
2023-04-23T21:50:55.964Z,99.90
2023-04-23T21:53:21.556Z,99.90
2023-04-23T21:55:46.341Z,99.90
2023-04-23T21:58:17.298Z,99.90
2023-04-23T22:00:44.493Z,99.90
2023-04-23T22:03:11.600Z,99.90
2023-04-23T22:05:38.635Z,99.90
2023-04-23T22:08:03.175Z,99.90
2023-04-23T22:10:27.787Z,99.90
2023-04-23T22:12:52.549Z,99.90
2023-04-23T22:15:18.887Z,99.90
2023-04-23T22:17:46.403Z,99.90
2023-04-23T22:20:13.488Z,99.90
2023-04-23T22:22:40.490Z,99.90
2023-04-23T22:25:07.067Z,99.90
2023-04-23T22:27:33.597Z,99.90
2023-04-23T22:29:59.382Z,99.90
2023-04-23T22:32:24.105Z,99.90
2023-04-23T22:34:48.763Z,99.90
2023-04-23T22:37:13.447Z,99.90
2023-04-23T22:39:39.614Z,99.90
2023-04-23T22:42:04.082Z,99.90
2023-04-23T22:44:28.618Z,99.90
2023-04-23T22:46:53.155Z,99.90
2023-04-23T22:49:19.115Z,99.90
2023-04-23T22:51:43.927Z,99.90
2023-04-23T22:54:08.377Z,99.90
2023-04-23T22:56:37.694Z,99.90
2023-04-23T22:59:02.219Z,99.90
2023-04-23T23:01:26.702Z,99.90
2023-04-23T23:03:51.536Z,99.90
2023-04-23T23:06:16.814Z,99.90
2023-04-23T23:08:41.510Z,99.90
2023-04-23T23:11:06.108Z,99.90
2023-04-23T23:13:32.329Z,99.90
2023-04-23T23:16:00.542Z,99.90
2023-04-23T23:18:25.286Z,99.90
2023-04-23T23:20:49.723Z,99.90
2023-04-23T23:23:14.402Z,99.90
2023-04-23T23:25:39.169Z,99.90
2023-04-23T23:28:03.719Z,99.90
2023-04-23T23:30:29.697Z,99.90
2023-04-23T23:32:55.527Z,99.90
2023-04-23T23:35:20.128Z,99.90
2023-04-23T23:37:44.648Z,99.90
2023-04-23T23:40:10.807Z,99.90
2023-04-23T23:42:35.472Z,99.90
2023-04-23T23:45:00.034Z,99.90
2023-04-23T23:47:26.487Z,99.90
2023-04-23T23:49:51.277Z,99.90
2023-04-23T23:52:15.840Z,99.90
2023-04-23T23:54:40.435Z,99.90
2023-04-23T23:57:05.312Z,99.90
2023-04-23T23:59:29.795Z,99.90
